createdAt,value
2019-06-26T00:00:14.329Z,22.80
2019-06-26T00:02:44.884Z,22.82
2019-06-26T00:05:15.035Z,22.81
2019-06-26T00:07:45.066Z,22.78
2019-06-26T00:10:15.612Z,22.77
2019-06-26T00:12:45.718Z,22.76
2019-06-26T00:15:18.402Z,22.85
2019-06-26T00:17:48.435Z,22.75
2019-06-26T00:20:18.884Z,22.70
2019-06-26T00:22:48.909Z,22.65
2019-06-26T00:25:19.016Z,22.66
2019-06-26T00:27:49.171Z,22.62
2019-06-26T00:30:19.328Z,22.59
2019-06-26T00:32:49.408Z,22.57
2019-06-26T00:35:19.448Z,22.59
2019-06-26T00:37:52.993Z,22.60
2019-06-26T00:40:24.227Z,22.54
2019-06-26T00:42:54.232Z,22.52
2019-06-26T00:45:24.324Z,22.48
2019-06-26T00:47:54.369Z,22.40
2019-06-26T00:50:25.591Z,22.29
2019-06-26T00:52:56.461Z,22.16
2019-06-26T00:55:26.501Z,22.01
2019-06-26T00:57:57.027Z,22.03
2019-06-26T01:00:38.901Z,22.03
2019-06-26T01:03:08.918Z,22.06
2019-06-26T01:05:40.457Z,22.07
2019-06-26T01:08:10.465Z,22.09
2019-06-26T01:10:43.326Z,22.09
2019-06-26T01:13:13.465Z,22.10
2019-06-26T01:15:43.574Z,22.11
2019-06-26T01:18:13.575Z,22.12
2019-06-26T01:20:43.679Z,22.15
2019-06-26T01:23:13.685Z,22.18
2019-06-26T01:25:43.721Z,22.22
2019-06-26T01:28:15.247Z,22.24
2019-06-26T01:30:45.352Z,22.22
2019-06-26T01:33:15.411Z,22.16
2019-06-26T01:35:45.507Z,22.10
2019-06-26T01:38:15.812Z,22.04
2019-06-26T01:40:46.662Z,21.99
2019-06-26T01:43:16.670Z,21.98
2019-06-26T01:45:46.695Z,22.01
2019-06-26T01:48:16.703Z,21.96
2019-06-26T01:50:48.703Z,21.91
2019-06-26T01:53:19.744Z,21.91
2019-06-26T01:55:49.802Z,21.86
2019-06-26T01:58:19.813Z,21.84
2019-06-26T02:00:49.909Z,21.82
2019-06-26T02:03:20.070Z,21.82
2019-06-26T02:05:50.333Z,21.79
2019-06-26T02:08:20.369Z,21.67
2019-06-26T02:10:50.518Z,21.61
2019-06-26T02:13:20.889Z,21.56
2019-06-26T02:15:51.033Z,21.44
2019-06-26T02:18:34.721Z,21.38
2019-06-26T02:21:04.832Z,21.37
2019-06-26T02:23:34.908Z,21.36
2019-06-26T02:26:05.072Z,21.35
2019-06-26T02:28:35.076Z,21.30
2019-06-26T02:31:05.176Z,21.32
2019-06-26T02:33:36.939Z,21.33
2019-06-26T02:36:06.980Z,21.33
2019-06-26T02:38:41.485Z,21.25
2019-06-26T02:41:13.831Z,21.26
2019-06-26T02:43:45.471Z,21.25
2019-06-26T02:46:15.516Z,21.22
2019-06-26T02:48:45.570Z,21.20
2019-06-26T02:51:18.647Z,21.23
2019-06-26T02:53:48.999Z,21.27
2019-06-26T02:56:19.652Z,21.28
2019-06-26T02:58:51.729Z,21.35
2019-06-26T03:01:21.814Z,21.38
2019-06-26T03:03:51.997Z,21.40
2019-06-26T03:06:22.566Z,21.39
2019-06-26T03:08:55.581Z,21.36
2019-06-26T03:11:25.976Z,21.32
2019-06-26T03:13:55.997Z,21.30
2019-06-26T03:16:26.341Z,21.30
2019-06-26T03:18:56.437Z,21.25
2019-06-26T03:21:26.411Z,21.27
2019-06-26T03:23:56.440Z,21.28
2019-06-26T03:26:26.531Z,21.30
2019-06-26T03:28:58.182Z,21.35
2019-06-26T03:31:28.407Z,21.32
2019-06-26T03:34:01.246Z,21.33
2019-06-26T03:36:31.242Z,21.42
2019-06-26T03:39:01.282Z,21.51
2019-06-26T03:41:32.938Z,21.57
2019-06-26T03:44:02.969Z,21.61
2019-06-26T03:46:34.778Z,21.65
2019-06-26T03:49:06.008Z,21.74
2019-06-26T03:51:37.056Z,21.80
2019-06-26T03:54:07.091Z,21.85
2019-06-26T03:56:37.095Z,21.95
2019-06-26T03:59:07.182Z,22.02
2019-06-26T04:01:37.288Z,22.08
2019-06-26T04:04:11.502Z,22.16
2019-06-26T04:06:41.512Z,22.30
2019-06-26T04:09:11.901Z,22.49
2019-06-26T04:11:43.312Z,22.63
2019-06-26T04:14:13.339Z,22.80
2019-06-26T04:16:44.995Z,22.91
2019-06-26T04:19:15.024Z,23.00
2019-06-26T04:21:45.560Z,23.11
2019-06-26T04:24:15.591Z,23.24
2019-06-26T04:26:45.592Z,23.37
2019-06-26T04:29:15.608Z,23.45
2019-06-26T04:31:45.631Z,23.55
2019-06-26T04:34:17.082Z,23.65
2019-06-26T04:36:47.112Z,23.77
2019-06-26T04:39:17.114Z,23.81
2019-06-26T04:41:47.150Z,23.92
2019-06-26T04:44:17.147Z,24.06
2019-06-26T04:46:47.182Z,24.09
2019-06-26T04:49:17.202Z,24.16
2019-06-26T04:51:49.831Z,24.28
2019-06-26T04:54:20.924Z,24.36
2019-06-26T04:56:50.956Z,24.49
2019-06-26T04:59:20.982Z,24.53
2019-06-26T05:01:51.072Z,24.62
2019-06-26T05:04:22.652Z,24.73
2019-06-26T05:06:52.679Z,24.86
2019-06-26T05:09:22.728Z,25.09
2019-06-26T05:11:52.736Z,25.41
2019-06-26T05:14:22.801Z,25.69
2019-06-26T05:16:53.856Z,25.95
2019-06-26T05:19:23.946Z,26.18
2019-06-26T05:21:53.946Z,26.35
2019-06-26T05:24:23.957Z,26.54
2019-06-26T05:26:53.949Z,26.70
2019-06-26T05:29:24.604Z,26.83
2019-06-26T05:31:54.641Z,26.95
2019-06-26T05:34:25.214Z,27.02
2019-06-26T05:36:55.225Z,27.10
2019-06-26T05:39:25.567Z,27.13
2019-06-26T05:41:55.607Z,27.18
2019-06-26T05:44:25.690Z,27.19
2019-06-26T05:46:55.712Z,27.21
2019-06-26T05:49:25.807Z,27.30
2019-06-26T05:51:55.810Z,27.28
2019-06-26T05:54:25.828Z,27.25
2019-06-26T05:56:55.843Z,27.32
2019-06-26T05:59:25.842Z,27.38
2019-06-26T06:01:59.146Z,27.37
2019-06-26T06:04:29.168Z,27.36
2019-06-26T06:06:59.187Z,27.38
2019-06-26T06:09:31.577Z,27.45
2019-06-26T06:12:01.678Z,27.49
2019-06-26T06:14:32.300Z,27.52
2019-06-26T06:17:04.235Z,27.55
2019-06-26T06:19:35.296Z,27.62
2019-06-26T06:22:05.318Z,27.68
2019-06-26T06:24:35.314Z,27.79
2019-06-26T06:27:05.468Z,27.87
2019-06-26T06:29:35.476Z,27.88
2019-06-26T06:32:05.565Z,27.97
2019-06-26T06:34:35.550Z,28.03
2019-06-26T06:37:05.580Z,28.17
2019-06-26T06:39:35.572Z,28.29
2019-06-26T06:42:05.583Z,28.45
2019-06-26T06:44:35.597Z,28.58
2019-06-26T06:47:08.775Z,28.72
2019-06-26T06:49:39.113Z,28.81
2019-06-26T06:52:09.108Z,28.83
2019-06-26T06:54:39.131Z,28.94
2019-06-26T06:57:09.126Z,29.06
2019-06-26T06:59:39.152Z,29.16
2019-06-26T07:02:09.151Z,29.33
2019-06-26T07:04:39.152Z,29.41
2019-06-26T07:07:09.146Z,29.58
2019-06-26T07:09:39.165Z,29.65
2019-06-26T07:12:11.315Z,29.68
2019-06-26T07:14:45.935Z,29.78
2019-06-26T07:17:20.382Z,29.89
2019-06-26T07:19:50.594Z,29.98
2019-06-26T07:22:20.588Z,30.04
2019-06-26T07:24:50.607Z,30.20
2019-06-26T07:27:23.267Z,30.33
2019-06-26T07:29:53.280Z,30.46
2019-06-26T07:32:23.374Z,30.53
2019-06-26T07:34:53.440Z,30.50
2019-06-26T07:37:23.445Z,30.56
2019-06-26T07:39:58.739Z,30.58
2019-06-26T07:42:26.063Z,30.68
2019-06-26T07:44:56.084Z,30.64
2019-06-26T07:47:41.862Z,30.77
2019-06-26T07:50:06.174Z,30.89
2019-06-26T07:52:36.278Z,30.95
2019-06-26T07:55:11.755Z,31.06
2019-06-26T07:57:40.103Z,31.08
2019-06-26T08:00:10.584Z,31.05
2019-06-26T08:02:40.988Z,31.21
2019-06-26T08:05:14.461Z,31.19
2019-06-26T08:07:44.597Z,31.22
2019-06-26T08:10:16.158Z,31.34
2019-06-26T08:12:46.172Z,31.41
2019-06-26T08:15:18.284Z,31.49
2019-06-26T08:17:59.995Z,31.58
2019-06-26T08:20:24.892Z,31.52
2019-06-26T08:22:54.969Z,31.56
2019-06-26T08:25:25.056Z,31.62
2019-06-26T08:27:55.233Z,31.68
2019-06-26T08:30:27.192Z,31.73
2019-06-26T08:32:57.935Z,31.75
2019-06-26T08:35:27.965Z,31.80
2019-06-26T08:38:09.879Z,31.82
2019-06-26T08:40:29.697Z,31.91
2019-06-26T08:42:59.731Z,32.00
2019-06-26T08:45:31.854Z,32.06
2019-06-26T08:48:17.420Z,32.06
2019-06-26T08:50:42.059Z,32.14
2019-06-26T08:53:12.066Z,32.21
2019-06-26T08:55:42.065Z,32.26
2019-06-26T08:58:12.171Z,32.39
2019-06-26T09:00:49.066Z,32.51
2019-06-26T09:03:19.186Z,32.70
2019-06-26T09:05:49.386Z,32.67
2019-06-26T09:08:22.759Z,32.74
2019-06-26T09:10:58.477Z,32.86
2019-06-26T09:13:29.756Z,32.88
2019-06-26T09:15:59.715Z,32.86
2019-06-26T09:18:35.407Z,32.82
2019-06-26T09:21:03.288Z,32.85
2019-06-26T09:23:35.207Z,32.68
2019-06-26T09:26:05.387Z,32.50
2019-06-26T09:28:35.455Z,32.46
2019-06-26T09:31:07.689Z,32.55
2019-06-26T09:33:40.728Z,32.70
2019-06-26T09:36:12.049Z,32.67
2019-06-26T09:38:42.065Z,32.74
2019-06-26T09:41:12.114Z,32.84
2019-06-26T09:43:42.919Z,32.87
2019-06-26T09:46:12.997Z,32.95
2019-06-26T09:48:52.668Z,32.91
2019-06-26T09:51:14.728Z,32.98
2019-06-26T09:53:47.654Z,32.90
2019-06-26T09:56:16.556Z,32.98
2019-06-26T09:58:49.657Z,33.01
2019-06-26T10:01:21.542Z,32.99
2019-06-26T10:03:51.587Z,32.93
2019-06-26T10:06:23.301Z,33.10
2019-06-26T10:08:54.571Z,33.27
2019-06-26T10:11:24.896Z,33.40
2019-06-26T10:13:54.929Z,33.39
2019-06-26T10:16:24.940Z,33.48
2019-06-26T10:19:09.735Z,33.55
2019-06-26T10:21:30.137Z,33.66
2019-06-26T10:24:00.298Z,33.75
2019-06-26T10:26:32.586Z,33.81
2019-06-26T10:29:02.035Z,33.85
2019-06-26T10:31:32.398Z,33.82
2019-06-26T10:34:02.530Z,33.78
2019-06-26T10:36:32.917Z,33.85
2019-06-26T10:39:07.873Z,33.78
2019-06-26T10:41:39.544Z,33.89
2019-06-26T10:44:09.548Z,33.95
2019-06-26T10:46:39.660Z,34.08
2019-06-26T10:49:22.687Z,34.07
2019-06-26T10:51:41.462Z,34.04
2019-06-26T10:54:11.616Z,33.98
2019-06-26T10:56:41.588Z,34.11
2019-06-26T10:59:11.681Z,34.22
2019-06-26T11:01:43.630Z,34.27
2019-06-26T11:04:13.622Z,34.38
2019-06-26T11:06:43.613Z,34.35
2019-06-26T11:09:13.637Z,34.41
2019-06-26T11:11:46.386Z,34.34
2019-06-26T11:14:16.433Z,34.30
2019-06-26T11:16:46.419Z,34.42
2019-06-26T11:19:16.451Z,34.59
2019-06-26T11:21:48.294Z,34.62
2019-06-26T11:24:18.334Z,34.70
2019-06-26T11:26:48.363Z,34.72
2019-06-26T11:29:18.435Z,34.78
2019-06-26T11:31:48.461Z,34.86
2019-06-26T11:34:20.114Z,34.89
2019-06-26T11:37:03.268Z,34.80
2019-06-26T11:39:25.133Z,34.75
2019-06-26T11:41:55.229Z,34.56
2019-06-26T11:44:25.325Z,34.73
2019-06-26T11:46:58.334Z,34.63
2019-06-26T11:49:28.385Z,34.59
2019-06-26T11:51:58.371Z,34.57
2019-06-26T11:54:28.385Z,34.72
2019-06-26T11:56:59.321Z,34.82
2019-06-26T11:59:29.366Z,34.97
2019-06-26T12:01:59.388Z,35.03
2019-06-26T12:04:31.040Z,35.03
2019-06-26T12:07:01.068Z,35.00
2019-06-26T12:09:31.101Z,35.08
2019-06-26T12:12:01.797Z,35.15
2019-06-26T12:14:31.974Z,35.20
2019-06-26T12:17:02.000Z,35.24
2019-06-26T12:19:31.976Z,35.27
2019-06-26T12:22:02.148Z,35.35
2019-06-26T12:24:32.238Z,35.53
2019-06-26T12:27:06.871Z,35.49
2019-06-26T12:29:36.905Z,35.46
2019-06-26T12:32:06.979Z,35.31
2019-06-26T12:34:37.063Z,35.19
2019-06-26T12:37:07.080Z,35.30
2019-06-26T12:39:37.082Z,35.28
2019-06-26T12:42:07.693Z,35.18
2019-06-26T12:44:37.685Z,35.14
2019-06-26T12:47:09.497Z,35.36
2019-06-26T12:49:40.826Z,35.41
2019-06-26T12:52:10.836Z,35.35
2019-06-26T12:54:43.602Z,35.23
2019-06-26T12:57:13.788Z,35.21
2019-06-26T12:59:56.680Z,35.35
2019-06-26T13:02:19.392Z,35.23
2019-06-26T13:04:50.465Z,35.35
2019-06-26T13:07:20.481Z,35.19
2019-06-26T13:09:50.482Z,34.98
2019-06-26T13:12:21.636Z,34.72
2019-06-26T13:14:54.802Z,34.65
2019-06-26T13:17:24.956Z,34.89
2019-06-26T13:19:56.660Z,35.02
2019-06-26T13:22:28.547Z,35.08
2019-06-26T13:24:58.577Z,35.21
2019-06-26T13:27:30.185Z,35.20
2019-06-26T13:30:00.702Z,34.75
2019-06-26T13:32:30.797Z,34.40
2019-06-26T13:35:00.833Z,34.28
2019-06-26T13:37:30.934Z,34.18
2019-06-26T13:40:00.942Z,34.36
2019-06-26T13:42:32.039Z,34.61
2019-06-26T13:45:02.185Z,34.57
2019-06-26T13:47:32.583Z,34.62
2019-06-26T13:50:03.631Z,34.78
2019-06-26T13:52:33.618Z,34.98
2019-06-26T13:55:04.174Z,34.71
2019-06-26T13:57:34.192Z,34.84
2019-06-26T14:00:06.123Z,34.69
2019-06-26T14:02:40.186Z,34.48
2019-06-26T14:05:10.379Z,34.41
2019-06-26T14:07:40.475Z,34.54
2019-06-26T14:10:11.137Z,34.66
2019-06-26T14:12:41.125Z,34.45
2019-06-26T14:15:11.587Z,34.73
2019-06-26T14:17:41.730Z,34.72
2019-06-26T14:20:15.374Z,34.81
2019-06-26T14:22:45.412Z,34.94
2019-06-26T14:25:16.198Z,35.01
2019-06-26T14:27:47.285Z,34.41
2019-06-26T14:30:17.731Z,34.68
2019-06-26T14:32:49.778Z,34.32
2019-06-26T14:35:20.273Z,34.61
2019-06-26T14:37:50.436Z,34.49
2019-06-26T14:40:20.871Z,34.51
2019-06-26T14:42:50.899Z,34.28
2019-06-26T14:45:20.989Z,33.95
2019-06-26T14:47:50.993Z,33.59
2019-06-26T14:50:24.155Z,33.03
2019-06-26T14:52:54.231Z,32.95
2019-06-26T14:55:24.334Z,33.06
2019-06-26T14:57:54.377Z,33.09
2019-06-26T15:00:25.027Z,32.87
2019-06-26T15:02:55.133Z,32.97
2019-06-26T15:05:25.288Z,32.53
2019-06-26T15:07:55.543Z,32.61
2019-06-26T15:10:25.659Z,32.43
2019-06-26T15:12:55.670Z,32.54
2019-06-26T15:15:25.794Z,32.96
2019-06-26T15:17:55.897Z,32.75
2019-06-26T15:20:27.572Z,33.01
2019-06-26T15:22:58.887Z,32.94
2019-06-26T15:25:31.773Z,33.02
2019-06-26T15:28:01.818Z,33.13
2019-06-26T15:30:31.982Z,33.02
2019-06-26T15:33:02.010Z,33.11
2019-06-26T15:35:35.468Z,33.33
2019-06-26T15:38:05.571Z,33.49
2019-06-26T15:40:35.781Z,33.58
2019-06-26T15:43:05.848Z,33.24
2019-06-26T15:45:36.025Z,32.68
2019-06-26T15:48:06.142Z,32.00
2019-06-26T15:50:36.146Z,32.21
2019-06-26T15:53:08.698Z,32.15
2019-06-26T15:55:38.697Z,32.34
2019-06-26T15:58:08.838Z,31.43
2019-06-26T16:00:42.501Z,32.02
2019-06-26T16:03:12.579Z,31.87
2019-06-26T16:05:42.677Z,31.86
2019-06-26T16:08:13.666Z,31.29
2019-06-26T16:10:43.712Z,31.43
2019-06-26T16:13:16.449Z,31.47
2019-06-26T16:15:49.555Z,31.45
2019-06-26T16:18:22.522Z,31.00
2019-06-26T16:20:53.648Z,30.83
2019-06-26T16:23:23.767Z,30.83
2019-06-26T16:25:53.752Z,30.97
2019-06-26T16:28:23.775Z,30.63
2019-06-26T16:30:53.755Z,30.88
2019-06-26T16:33:23.774Z,31.11
2019-06-26T16:35:55.710Z,31.08
2019-06-26T16:38:25.797Z,31.11
2019-06-26T16:40:55.852Z,31.11
2019-06-26T16:43:25.878Z,30.86
2019-06-26T16:45:55.882Z,31.08
2019-06-26T16:48:26.007Z,31.15
2019-06-26T16:50:55.994Z,30.60
2019-06-26T16:53:26.017Z,30.64
2019-06-26T16:55:56.052Z,30.01
2019-06-26T16:58:26.085Z,29.81
2019-06-26T17:00:57.004Z,29.77
2019-06-26T17:03:29.836Z,29.77
2019-06-26T17:06:00.089Z,29.71
2019-06-26T17:08:30.184Z,29.37
2019-06-26T17:11:00.402Z,29.56
2019-06-26T17:13:30.483Z,29.50
2019-06-26T17:16:00.565Z,29.27
2019-06-26T17:18:30.560Z,29.14
2019-06-26T17:21:00.599Z,29.18
2019-06-26T17:23:30.631Z,28.91
2019-06-26T17:26:00.674Z,28.60
2019-06-26T17:28:30.652Z,28.55
2019-06-26T17:31:00.747Z,28.36
2019-06-26T17:33:30.871Z,28.08
2019-06-26T17:36:00.905Z,27.93
2019-06-26T17:38:30.979Z,27.74
2019-06-26T17:41:00.999Z,27.52
2019-06-26T17:43:30.991Z,27.68
2019-06-26T17:46:02.654Z,27.60
2019-06-26T17:48:32.657Z,27.55
2019-06-26T17:51:03.280Z,27.61
2019-06-26T17:53:33.432Z,27.54
2019-06-26T17:56:03.621Z,27.57
2019-06-26T17:58:34.897Z,27.60
2019-06-26T18:01:04.858Z,27.53
2019-06-26T18:03:35.131Z,27.45
2019-06-26T18:06:06.510Z,27.36
2019-06-26T18:08:36.599Z,27.29
2019-06-26T18:11:07.800Z,27.19
2019-06-26T18:13:38.319Z,27.13
2019-06-26T18:16:08.378Z,27.15
2019-06-26T18:18:38.494Z,26.94
2019-06-26T18:21:08.795Z,26.88
2019-06-26T18:23:38.868Z,26.56
2019-06-26T18:26:13.596Z,26.41
2019-06-26T18:28:42.378Z,26.16
2019-06-26T18:31:12.446Z,26.24
2019-06-26T18:33:44.324Z,26.26
2019-06-26T18:36:14.232Z,26.33
2019-06-26T18:38:44.244Z,26.33
2019-06-26T18:41:14.233Z,26.35
2019-06-26T18:43:44.318Z,26.35
2019-06-26T18:46:14.346Z,26.20
2019-06-26T18:48:44.517Z,26.18
2019-06-26T18:51:14.526Z,26.07
2019-06-26T18:53:53.619Z,25.89
2019-06-26T18:56:16.879Z,25.71
2019-06-26T18:58:46.863Z,25.78
2019-06-26T19:01:19.637Z,25.64
2019-06-26T19:03:49.619Z,25.57
2019-06-26T19:06:22.382Z,25.46
2019-06-26T19:08:52.401Z,25.28
2019-06-26T19:11:22.394Z,25.15
2019-06-26T19:13:52.781Z,24.97
2019-06-26T19:16:22.780Z,24.76
2019-06-26T19:18:52.790Z,24.81
2019-06-26T19:21:22.794Z,24.78
2019-06-26T19:24:08.871Z,24.52
2019-06-26T19:26:24.580Z,24.43
2019-06-26T19:28:55.135Z,24.37
2019-06-26T19:31:25.216Z,24.26
2019-06-26T19:33:55.237Z,24.06
2019-06-26T19:36:28.519Z,24.05
2019-06-26T19:38:56.984Z,23.91
2019-06-26T19:41:27.055Z,23.98
2019-06-26T19:43:57.153Z,23.94
2019-06-26T19:46:27.245Z,23.52
2019-06-26T19:48:57.750Z,23.14
2019-06-26T19:51:28.021Z,23.10
2019-06-26T19:53:58.003Z,23.09
2019-06-26T19:56:28.105Z,23.32
2019-06-26T19:58:58.095Z,23.16
2019-06-26T20:01:28.193Z,23.17
2019-06-26T20:03:58.206Z,23.13
2019-06-26T20:06:28.291Z,22.94
2019-06-26T20:08:58.275Z,22.74
2019-06-26T20:11:28.373Z,22.65
2019-06-26T20:13:58.376Z,22.57
2019-06-26T20:16:28.473Z,22.44
2019-06-26T20:18:58.458Z,22.36
2019-06-26T20:21:29.560Z,22.08
2019-06-26T20:23:59.556Z,22.13
2019-06-26T20:26:29.582Z,21.94
2019-06-26T20:28:59.656Z,21.86
2019-06-26T20:31:29.729Z,21.92
2019-06-26T20:33:59.725Z,21.95
2019-06-26T20:36:29.737Z,21.89
2019-06-26T20:38:59.735Z,21.83
2019-06-26T20:41:29.816Z,21.79
2019-06-26T20:43:59.819Z,21.70
2019-06-26T20:46:29.900Z,21.61
2019-06-26T20:48:59.972Z,21.42
2019-06-26T20:51:29.986Z,21.27
2019-06-26T20:54:00.251Z,21.23
2019-06-26T20:56:30.261Z,20.98
2019-06-26T20:59:00.268Z,21.00
2019-06-26T21:01:30.356Z,20.97
2019-06-26T21:04:00.347Z,20.86
2019-06-26T21:06:30.428Z,20.66
2019-06-26T21:09:00.498Z,20.64
2019-06-26T21:11:31.686Z,20.49
2019-06-26T21:14:02.762Z,20.30
2019-06-26T21:16:33.854Z,20.37
2019-06-26T21:19:06.626Z,20.15
2019-06-26T21:21:38.737Z,20.20
2019-06-26T21:24:08.354Z,20.08
2019-06-26T21:26:38.434Z,20.24
2019-06-26T21:29:10.071Z,20.13
2019-06-26T21:31:40.102Z,19.93
2019-06-26T21:34:10.240Z,19.79
2019-06-26T21:36:40.229Z,19.70
2019-06-26T21:39:10.234Z,19.61
2019-06-26T21:41:40.227Z,19.41
2019-06-26T21:44:10.242Z,19.45
2019-06-26T21:46:40.268Z,19.61
2019-06-26T21:49:10.353Z,19.49
2019-06-26T21:51:43.155Z,19.38
2019-06-26T21:54:13.177Z,19.49
2019-06-26T21:57:00.886Z,19.50
2019-06-26T21:59:48.841Z,19.49
2019-06-26T22:02:36.974Z,19.59
2019-06-26T22:05:09.271Z,19.58
2019-06-26T22:07:40.949Z,19.64
2019-06-26T22:10:13.194Z,19.61
2019-06-26T22:12:46.266Z,19.63
2019-06-26T22:15:16.751Z,19.48
2019-06-26T22:17:46.811Z,19.48
2019-06-26T22:20:17.155Z,19.49
2019-06-26T22:22:47.286Z,19.53
2019-06-26T22:25:17.565Z,19.49
2019-06-26T22:27:47.860Z,19.36
2019-06-26T22:30:19.818Z,19.32
2019-06-26T22:32:49.867Z,19.41
2019-06-26T22:35:19.950Z,19.25
2019-06-26T22:37:51.874Z,19.21
2019-06-26T22:40:21.883Z,19.14
2019-06-26T22:42:51.961Z,19.11
2019-06-26T22:45:22.997Z,19.14
2019-06-26T22:47:53.009Z,19.17
2019-06-26T22:50:23.074Z,19.16
2019-06-26T22:52:53.162Z,19.07
2019-06-26T22:55:23.227Z,19.09
2019-06-26T22:57:57.801Z,18.96
2019-06-26T23:00:27.920Z,18.93
2019-06-26T23:02:57.958Z,19.00
2019-06-26T23:05:27.952Z,19.12
2019-06-26T23:07:57.978Z,19.20
2019-06-26T23:10:27.997Z,19.28
2019-06-26T23:12:59.670Z,19.12
2019-06-26T23:15:29.684Z,19.10
2019-06-26T23:17:59.702Z,18.92
2019-06-26T23:20:29.697Z,18.86
2019-06-26T23:22:59.772Z,18.87
2019-06-26T23:25:30.257Z,18.85
2019-06-26T23:28:03.344Z,18.90
2019-06-26T23:30:33.351Z,18.89
2019-06-26T23:33:04.862Z,18.92
2019-06-26T23:35:35.464Z,18.71
2019-06-26T23:38:05.826Z,18.65
2019-06-26T23:40:35.856Z,18.71
2019-06-26T23:43:05.942Z,18.58
2019-06-26T23:45:36.090Z,18.69
2019-06-26T23:48:06.166Z,18.71
2019-06-26T23:50:36.184Z,18.40
2019-06-26T23:53:06.178Z,18.48
2019-06-26T23:55:36.187Z,18.51
2019-06-26T23:58:06.248Z,18.46
